sensor_id;sensor_type;location;lat;lon;timestamp;P1;durP1;ratioP1;P2;durP2;ratioP2
4885;SDS011;2457;51.788;6.136;2023-08-06T00:00:07;5.77;;;2.40;;
4885;SDS011;2457;51.788;6.136;2023-08-06T00:02:35;5.20;;;2.23;;
4885;SDS011;2457;51.788;6.136;2023-08-06T00:05:03;7.23;;;2.20;;
4885;SDS011;2457;51.788;6.136;2023-08-06T00:07:30;5.77;;;2.77;;
4885;SDS011;2457;51.788;6.136;2023-08-06T00:09:58;7.13;;;2.33;;
4885;SDS011;2457;51.788;6.136;2023-08-06T00:12:25;7.20;;;2.70;;
4885;SDS011;2457;51.788;6.136;2023-08-06T00:14:53;5.20;;;1.80;;
4885;SDS011;2457;51.788;6.136;2023-08-06T00:17:20;9.77;;;2.60;;
4885;SDS011;2457;51.788;6.136;2023-08-06T00:19:48;8.00;;;3.03;;
4885;SDS011;2457;51.788;6.136;2023-08-06T00:22:15;5.60;;;2.30;;
4885;SDS011;2457;51.788;6.136;2023-08-06T00:24:42;8.40;;;3.53;;
4885;SDS011;2457;51.788;6.136;2023-08-06T00:27:11;5.50;;;2.53;;
4885;SDS011;2457;51.788;6.136;2023-08-06T00:29:39;13.20;;;2.90;;
4885;SDS011;2457;51.788;6.136;2023-08-06T00:32:06;8.20;;;2.80;;
4885;SDS011;2457;51.788;6.136;2023-08-06T00:34:34;5.83;;;2.60;;
4885;SDS011;2457;51.788;6.136;2023-08-06T00:37:01;6.00;;;2.60;;
4885;SDS011;2457;51.788;6.136;2023-08-06T00:39:29;5.53;;;2.80;;
4885;SDS011;2457;51.788;6.136;2023-08-06T00:41:56;7.90;;;2.60;;
4885;SDS011;2457;51.788;6.136;2023-08-06T00:44:24;6.30;;;2.60;;
4885;SDS011;2457;51.788;6.136;2023-08-06T00:46:52;6.43;;;2.70;;
4885;SDS011;2457;51.788;6.136;2023-08-06T00:49:19;7.73;;;3.00;;
4885;SDS011;2457;51.788;6.136;2023-08-06T00:51:47;6.43;;;2.20;;
4885;SDS011;2457;51.788;6.136;2023-08-06T00:54:14;6.03;;;2.40;;
4885;SDS011;2457;51.788;6.136;2023-08-06T00:56:42;6.50;;;2.53;;
4885;SDS011;2457;51.788;6.136;2023-08-06T00:59:11;6.60;;;2.83;;
4885;SDS011;2457;51.788;6.136;2023-08-06T01:01:39;6.13;;;2.43;;
4885;SDS011;2457;51.788;6.136;2023-08-06T01:04:11;6.07;;;2.30;;
4885;SDS011;2457;51.788;6.136;2023-08-06T01:06:39;5.83;;;2.20;;
4885;SDS011;2457;51.788;6.136;2023-08-06T01:09:14;7.10;;;2.37;;
4885;SDS011;2457;51.788;6.136;2023-08-06T01:16:50;8.30;;;2.73;;
4885;SDS011;2457;51.788;6.136;2023-08-06T01:19:18;7.27;;;2.67;;
4885;SDS011;2457;51.788;6.136;2023-08-06T01:21:46;5.30;;;2.50;;
4885;SDS011;2457;51.788;6.136;2023-08-06T01:24:13;7.23;;;2.60;;
4885;SDS011;2457;51.788;6.136;2023-08-06T01:26:45;8.73;;;2.43;;
4885;SDS011;2457;51.788;6.136;2023-08-06T01:29:18;7.50;;;2.93;;
4885;SDS011;2457;51.788;6.136;2023-08-06T01:31:44;7.87;;;2.70;;
4885;SDS011;2457;51.788;6.136;2023-08-06T01:34:15;6.30;;;2.60;;
4885;SDS011;2457;51.788;6.136;2023-08-06T01:36:47;10.37;;;3.10;;
4885;SDS011;2457;51.788;6.136;2023-08-06T01:39:14;6.20;;;2.97;;
4885;SDS011;2457;51.788;6.136;2023-08-06T01:41:42;7.30;;;2.90;;
4885;SDS011;2457;51.788;6.136;2023-08-06T01:44:09;6.60;;;2.83;;
4885;SDS011;2457;51.788;6.136;2023-08-06T01:46:37;7.77;;;2.87;;
4885;SDS011;2457;51.788;6.136;2023-08-06T01:49:04;7.67;;;3.13;;
4885;SDS011;2457;51.788;6.136;2023-08-06T01:51:31;6.07;;;2.53;;
4885;SDS011;2457;51.788;6.136;2023-08-06T01:53:59;6.57;;;3.00;;
4885;SDS011;2457;51.788;6.136;2023-08-06T01:56:26;5.43;;;2.73;;
4885;SDS011;2457;51.788;6.136;2023-08-06T01:58:54;6.47;;;2.77;;
4885;SDS011;2457;51.788;6.136;2023-08-06T02:01:21;5.90;;;2.97;;
4885;SDS011;2457;51.788;6.136;2023-08-06T02:03:49;8.00;;;3.17;;
4885;SDS011;2457;51.788;6.136;2023-08-06T02:06:16;7.40;;;3.43;;
4885;SDS011;2457;51.788;6.136;2023-08-06T02:08:44;5.90;;;2.80;;
4885;SDS011;2457;51.788;6.136;2023-08-06T02:11:11;7.13;;;3.03;;
4885;SDS011;2457;51.788;6.136;2023-08-06T02:13:38;7.33;;;3.63;;
4885;SDS011;2457;51.788;6.136;2023-08-06T02:16:09;7.17;;;3.47;;
4885;SDS011;2457;51.788;6.136;2023-08-06T02:18:36;8.10;;;3.30;;
4885;SDS011;2457;51.788;6.136;2023-08-06T02:21:03;8.40;;;3.30;;
4885;SDS011;2457;51.788;6.136;2023-08-06T02:23:31;7.87;;;2.97;;
4885;SDS011;2457;51.788;6.136;2023-08-06T02:25:59;6.70;;;3.27;;
4885;SDS011;2457;51.788;6.136;2023-08-06T02:28:26;6.57;;;3.03;;
4885;SDS011;2457;51.788;6.136;2023-08-06T02:30:54;8.00;;;3.53;;
4885;SDS011;2457;51.788;6.136;2023-08-06T02:33:21;7.50;;;4.00;;
4885;SDS011;2457;51.788;6.136;2023-08-06T02:35:49;7.57;;;3.60;;
4885;SDS011;2457;51.788;6.136;2023-08-06T02:38:16;8.10;;;3.57;;
4885;SDS011;2457;51.788;6.136;2023-08-06T02:40:44;8.20;;;3.50;;
4885;SDS011;2457;51.788;6.136;2023-08-06T02:43:12;7.50;;;3.90;;
4885;SDS011;2457;51.788;6.136;2023-08-06T02:45:40;10.07;;;3.93;;
4885;SDS011;2457;51.788;6.136;2023-08-06T02:48:07;10.57;;;4.10;;
4885;SDS011;2457;51.788;6.136;2023-08-06T02:50:41;7.37;;;3.43;;
4885;SDS011;2457;51.788;6.136;2023-08-06T02:53:08;8.60;;;3.97;;
4885;SDS011;2457;51.788;6.136;2023-08-06T02:55:44;8.63;;;3.50;;
4885;SDS011;2457;51.788;6.136;2023-08-06T02:58:05;9.10;;;3.63;;
4885;SDS011;2457;51.788;6.136;2023-08-06T03:00:32;11.90;;;3.93;;
4885;SDS011;2457;51.788;6.136;2023-08-06T03:03:00;6.90;;;3.60;;
4885;SDS011;2457;51.788;6.136;2023-08-06T03:05:27;7.30;;;4.00;;
4885;SDS011;2457;51.788;6.136;2023-08-06T03:07:54;11.70;;;3.80;;
4885;SDS011;2457;51.788;6.136;2023-08-06T03:10:26;10.90;;;4.23;;
4885;SDS011;2457;51.788;6.136;2023-08-06T03:12:51;9.40;;;4.60;;
4885;SDS011;2457;51.788;6.136;2023-08-06T03:15:18;11.00;;;5.53;;
4885;SDS011;2457;51.788;6.136;2023-08-06T03:17:50;7.33;;;3.80;;
4885;SDS011;2457;51.788;6.136;2023-08-06T03:20:14;7.97;;;4.13;;
4885;SDS011;2457;51.788;6.136;2023-08-06T03:22:42;11.83;;;4.10;;
4885;SDS011;2457;51.788;6.136;2023-08-06T03:25:09;7.43;;;4.10;;
4885;SDS011;2457;51.788;6.136;2023-08-06T03:27:37;11.13;;;4.03;;
4885;SDS011;2457;51.788;6.136;2023-08-06T03:30:05;7.23;;;3.90;;
4885;SDS011;2457;51.788;6.136;2023-08-06T03:32:32;8.40;;;3.73;;
4885;SDS011;2457;51.788;6.136;2023-08-06T03:35:00;8.40;;;3.87;;
4885;SDS011;2457;51.788;6.136;2023-08-06T03:37:27;8.97;;;4.70;;
4885;SDS011;2457;51.788;6.136;2023-08-06T03:39:55;9.13;;;3.40;;
4885;SDS011;2457;51.788;6.136;2023-08-06T03:42:22;7.80;;;3.63;;
4885;SDS011;2457;51.788;6.136;2023-08-06T03:44:49;8.33;;;3.93;;
4885;SDS011;2457;51.788;6.136;2023-08-06T03:47:17;7.20;;;3.73;;
4885;SDS011;2457;51.788;6.136;2023-08-06T03:49:44;8.53;;;3.80;;
4885;SDS011;2457;51.788;6.136;2023-08-06T03:52:11;6.70;;;3.63;;
4885;SDS011;2457;51.788;6.136;2023-08-06T03:54:39;18.03;;;3.50;;
4885;SDS011;2457;51.788;6.136;2023-08-06T03:57:09;8.80;;;3.60;;
4885;SDS011;2457;51.788;6.136;2023-08-06T03:59:36;7.20;;;3.40;;
4885;SDS011;2457;51.788;6.136;2023-08-06T04:02:04;6.50;;;3.13;;
4885;SDS011;2457;51.788;6.136;2023-08-06T04:04:31;7.03;;;3.63;;
4885;SDS011;2457;51.788;6.136;2023-08-06T04:06:58;8.30;;;3.77;;
4885;SDS011;2457;51.788;6.136;2023-08-06T04:09:27;7.93;;;3.80;;
4885;SDS011;2457;51.788;6.136;2023-08-06T04:11:55;8.00;;;3.67;;
4885;SDS011;2457;51.788;6.136;2023-08-06T04:14:25;7.20;;;2.87;;
4885;SDS011;2457;51.788;6.136;2023-08-06T04:16:53;7.07;;;3.50;;
4885;SDS011;2457;51.788;6.136;2023-08-06T04:19:20;6.93;;;3.50;;
4885;SDS011;2457;51.788;6.136;2023-08-06T04:21:52;7.50;;;3.50;;
4885;SDS011;2457;51.788;6.136;2023-08-06T04:24:17;6.70;;;3.23;;
4885;SDS011;2457;51.788;6.136;2023-08-06T04:26:44;6.67;;;3.33;;
4885;SDS011;2457;51.788;6.136;2023-08-06T04:29:11;7.27;;;3.37;;
4885;SDS011;2457;51.788;6.136;2023-08-06T04:31:42;7.30;;;3.90;;
4885;SDS011;2457;51.788;6.136;2023-08-06T04:34:09;6.80;;;3.30;;
4885;SDS011;2457;51.788;6.136;2023-08-06T04:36:37;10.80;;;3.70;;
4885;SDS011;2457;51.788;6.136;2023-08-06T04:39:05;7.97;;;3.40;;
4885;SDS011;2457;51.788;6.136;2023-08-06T04:41:32;7.43;;;3.80;;
4885;SDS011;2457;51.788;6.136;2023-08-06T04:44:00;7.70;;;3.83;;
4885;SDS011;2457;51.788;6.136;2023-08-06T04:46:27;6.70;;;3.93;;
4885;SDS011;2457;51.788;6.136;2023-08-06T04:48:55;7.87;;;3.47;;
4885;SDS011;2457;51.788;6.136;2023-08-06T04:51:25;7.00;;;3.77;;
4885;SDS011;2457;51.788;6.136;2023-08-06T04:53:53;7.27;;;3.97;;
4885;SDS011;2457;51.788;6.136;2023-08-06T04:56:20;10.47;;;4.27;;
4885;SDS011;2457;51.788;6.136;2023-08-06T04:58:47;6.37;;;3.13;;
4885;SDS011;2457;51.788;6.136;2023-08-06T05:01:15;7.73;;;3.67;;
4885;SDS011;2457;51.788;6.136;2023-08-06T05:03:42;10.37;;;3.93;;
4885;SDS011;2457;51.788;6.136;2023-08-06T05:06:10;8.60;;;3.80;;
4885;SDS011;2457;51.788;6.136;2023-08-06T05:08:37;7.60;;;4.13;;
4885;SDS011;2457;51.788;6.136;2023-08-06T05:11:04;8.50;;;3.87;;
4885;SDS011;2457;51.788;6.136;2023-08-06T05:13:32;7.40;;;3.60;;
4885;SDS011;2457;51.788;6.136;2023-08-06T05:15:59;8.43;;;3.43;;
4885;SDS011;2457;51.788;6.136;2023-08-06T05:18:27;9.73;;;4.03;;
4885;SDS011;2457;51.788;6.136;2023-08-06T05:20:55;9.63;;;4.03;;
4885;SDS011;2457;51.788;6.136;2023-08-06T05:23:22;7.80;;;3.97;;
4885;SDS011;2457;51.788;6.136;2023-08-06T05:25:50;7.80;;;4.23;;
4885;SDS011;2457;51.788;6.136;2023-08-06T05:28:17;8.70;;;4.17;;
4885;SDS011;2457;51.788;6.136;2023-08-06T05:30:44;9.63;;;4.17;;
4885;SDS011;2457;51.788;6.136;2023-08-06T05:33:12;10.20;;;4.07;;
4885;SDS011;2457;51.788;6.136;2023-08-06T05:35:40;14.90;;;4.43;;
4885;SDS011;2457;51.788;6.136;2023-08-06T05:38:08;8.03;;;3.73;;
4885;SDS011;2457;51.788;6.136;2023-08-06T05:40:35;10.20;;;3.87;;
4885;SDS011;2457;51.788;6.136;2023-08-06T05:43:06;8.47;;;4.10;;
4885;SDS011;2457;51.788;6.136;2023-08-06T05:45:35;8.80;;;3.80;;
4885;SDS011;2457;51.788;6.136;2023-08-06T05:48:02;9.70;;;4.17;;
4885;SDS011;2457;51.788;6.136;2023-08-06T05:50:29;9.40;;;4.03;;
4885;SDS011;2457;51.788;6.136;2023-08-06T05:52:57;7.70;;;3.70;;
4885;SDS011;2457;51.788;6.136;2023-08-06T05:55:24;9.20;;;4.40;;
4885;SDS011;2457;51.788;6.136;2023-08-06T05:57:51;8.07;;;3.87;;
4885;SDS011;2457;51.788;6.136;2023-08-06T06:00:19;9.63;;;3.77;;
4885;SDS011;2457;51.788;6.136;2023-08-06T06:02:46;7.83;;;3.77;;
4885;SDS011;2457;51.788;6.136;2023-08-06T06:05:13;8.70;;;4.17;;
4885;SDS011;2457;51.788;6.136;2023-08-06T06:07:41;6.73;;;3.23;;
4885;SDS011;2457;51.788;6.136;2023-08-06T06:10:08;8.50;;;4.43;;
4885;SDS011;2457;51.788;6.136;2023-08-06T06:12:37;8.00;;;4.20;;
4885;SDS011;2457;51.788;6.136;2023-08-06T06:15:05;9.57;;;4.50;;
4885;SDS011;2457;51.788;6.136;2023-08-06T06:17:33;11.37;;;4.97;;
4885;SDS011;2457;51.788;6.136;2023-08-06T06:20:03;9.50;;;4.60;;
4885;SDS011;2457;51.788;6.136;2023-08-06T06:22:31;9.23;;;4.77;;
4885;SDS011;2457;51.788;6.136;2023-08-06T06:24:58;11.30;;;4.67;;
4885;SDS011;2457;51.788;6.136;2023-08-06T06:27:25;8.83;;;4.43;;
4885;SDS011;2457;51.788;6.136;2023-08-06T06:29:53;8.37;;;4.53;;
4885;SDS011;2457;51.788;6.136;2023-08-06T06:32:21;10.20;;;4.87;;
4885;SDS011;2457;51.788;6.136;2023-08-06T06:34:50;9.23;;;4.70;;
4885;SDS011;2457;51.788;6.136;2023-08-06T06:37:17;9.77;;;4.77;;
4885;SDS011;2457;51.788;6.136;2023-08-06T06:39:44;10.43;;;5.47;;
4885;SDS011;2457;51.788;6.136;2023-08-06T06:42:12;9.83;;;5.13;;
4885;SDS011;2457;51.788;6.136;2023-08-06T06:44:41;9.77;;;5.60;;
4885;SDS011;2457;51.788;6.136;2023-08-06T06:47:08;12.63;;;6.17;;
4885;SDS011;2457;51.788;6.136;2023-08-06T06:49:36;11.50;;;7.20;;
4885;SDS011;2457;51.788;6.136;2023-08-06T06:52:03;12.00;;;7.37;;
4885;SDS011;2457;51.788;6.136;2023-08-06T06:54:31;12.87;;;6.43;;
4885;SDS011;2457;51.788;6.136;2023-08-06T06:56:58;12.47;;;7.37;;
4885;SDS011;2457;51.788;6.136;2023-08-06T06:59:26;11.10;;;6.37;;
4885;SDS011;2457;51.788;6.136;2023-08-06T07:01:53;9.67;;;5.90;;
4885;SDS011;2457;51.788;6.136;2023-08-06T07:04:20;13.40;;;6.93;;
4885;SDS011;2457;51.788;6.136;2023-08-06T07:06:48;14.93;;;6.90;;
4885;SDS011;2457;51.788;6.136;2023-08-06T07:09:19;12.63;;;7.10;;
4885;SDS011;2457;51.788;6.136;2023-08-06T07:11:48;12.77;;;6.90;;
4885;SDS011;2457;51.788;6.136;2023-08-06T07:14:15;18.27;;;7.60;;
4885;SDS011;2457;51.788;6.136;2023-08-06T07:16:43;13.00;;;7.53;;
4885;SDS011;2457;51.788;6.136;2023-08-06T07:19:10;11.90;;;7.27;;
4885;SDS011;2457;51.788;6.136;2023-08-06T07:21:37;12.23;;;7.23;;
4885;SDS011;2457;51.788;6.136;2023-08-06T07:24:05;15.60;;;7.63;;
4885;SDS011;2457;51.788;6.136;2023-08-06T07:26:32;14.63;;;7.60;;
4885;SDS011;2457;51.788;6.136;2023-08-06T07:29:00;18.30;;;9.00;;
4885;SDS011;2457;51.788;6.136;2023-08-06T07:31:27;16.23;;;8.87;;
4885;SDS011;2457;51.788;6.136;2023-08-06T07:33:54;14.67;;;8.27;;
4885;SDS011;2457;51.788;6.136;2023-08-06T07:36:22;13.00;;;7.67;;
4885;SDS011;2457;51.788;6.136;2023-08-06T07:38:49;11.57;;;7.37;;
4885;SDS011;2457;51.788;6.136;2023-08-06T07:41:18;12.40;;;7.90;;
4885;SDS011;2457;51.788;6.136;2023-08-06T07:43:45;12.97;;;8.33;;
4885;SDS011;2457;51.788;6.136;2023-08-06T07:46:13;13.43;;;7.10;;
4885;SDS011;2457;51.788;6.136;2023-08-06T07:48:40;14.40;;;7.90;;
4885;SDS011;2457;51.788;6.136;2023-08-06T07:51:07;12.60;;;7.53;;
4885;SDS011;2457;51.788;6.136;2023-08-06T07:53:35;12.70;;;7.70;;
4885;SDS011;2457;51.788;6.136;2023-08-06T07:56:02;15.13;;;7.53;;
4885;SDS011;2457;51.788;6.136;2023-08-06T07:58:30;12.90;;;7.40;;
4885;SDS011;2457;51.788;6.136;2023-08-06T08:00:58;12.07;;;7.40;;
4885;SDS011;2457;51.788;6.136;2023-08-06T08:03:25;11.90;;;6.93;;
4885;SDS011;2457;51.788;6.136;2023-08-06T08:05:57;10.83;;;6.90;;
4885;SDS011;2457;51.788;6.136;2023-08-06T08:08:23;14.20;;;7.17;;
4885;SDS011;2457;51.788;6.136;2023-08-06T08:10:54;10.77;;;7.10;;
4885;SDS011;2457;51.788;6.136;2023-08-06T08:13:25;13.97;;;7.07;;
4885;SDS011;2457;51.788;6.136;2023-08-06T08:15:56;13.63;;;8.17;;
4885;SDS011;2457;51.788;6.136;2023-08-06T08:18:20;13.63;;;7.30;;
4885;SDS011;2457;51.788;6.136;2023-08-06T08:20:47;14.53;;;7.13;;
4885;SDS011;2457;51.788;6.136;2023-08-06T08:23:19;12.53;;;6.67;;
4885;SDS011;2457;51.788;6.136;2023-08-06T08:25:43;12.60;;;7.27;;
4885;SDS011;2457;51.788;6.136;2023-08-06T08:28:11;14.93;;;8.20;;
4885;SDS011;2457;51.788;6.136;2023-08-06T08:30:40;14.17;;;9.10;;
4885;SDS011;2457;51.788;6.136;2023-08-06T08:33:07;19.17;;;7.53;;
4885;SDS011;2457;51.788;6.136;2023-08-06T08:35:35;13.23;;;7.70;;
4885;SDS011;2457;51.788;6.136;2023-08-06T08:38:04;16.47;;;8.60;;
4885;SDS011;2457;51.788;6.136;2023-08-06T08:40:32;13.40;;;8.03;;
4885;SDS011;2457;51.788;6.136;2023-08-06T08:42:59;15.97;;;9.10;;
4885;SDS011;2457;51.788;6.136;2023-08-06T08:45:28;13.70;;;8.53;;
4885;SDS011;2457;51.788;6.136;2023-08-06T08:47:56;12.73;;;7.37;;
4885;SDS011;2457;51.788;6.136;2023-08-06T08:50:23;12.17;;;7.10;;
4885;SDS011;2457;51.788;6.136;2023-08-06T08:52:51;10.97;;;6.70;;
4885;SDS011;2457;51.788;6.136;2023-08-06T08:55:19;13.87;;;7.43;;
4885;SDS011;2457;51.788;6.136;2023-08-06T08:57:47;12.47;;;6.20;;
4885;SDS011;2457;51.788;6.136;2023-08-06T09:00:18;10.07;;;5.87;;
4885;SDS011;2457;51.788;6.136;2023-08-06T09:02:45;9.17;;;5.03;;
4885;SDS011;2457;51.788;6.136;2023-08-06T09:05:13;8.33;;;4.27;;
4885;SDS011;2457;51.788;6.136;2023-08-06T09:07:42;7.67;;;3.90;;
4885;SDS011;2457;51.788;6.136;2023-08-06T09:10:14;7.13;;;3.77;;
4885;SDS011;2457;51.788;6.136;2023-08-06T09:12:43;6.50;;;3.20;;
4885;SDS011;2457;51.788;6.136;2023-08-06T09:15:11;6.50;;;3.47;;
4885;SDS011;2457;51.788;6.136;2023-08-06T09:17:39;5.73;;;2.50;;
4885;SDS011;2457;51.788;6.136;2023-08-06T09:20:10;6.50;;;2.80;;
4885;SDS011;2457;51.788;6.136;2023-08-06T09:22:38;5.63;;;2.90;;
4885;SDS011;2457;51.788;6.136;2023-08-06T09:25:06;6.07;;;2.70;;
4885;SDS011;2457;51.788;6.136;2023-08-06T09:27:36;6.27;;;3.07;;
4885;SDS011;2457;51.788;6.136;2023-08-06T09:30:04;7.13;;;3.40;;
4885;SDS011;2457;51.788;6.136;2023-08-06T09:32:48;6.80;;;3.13;;
4885;SDS011;2457;51.788;6.136;2023-08-06T09:35:19;7.23;;;3.63;;
4885;SDS011;2457;51.788;6.136;2023-08-06T09:37:46;7.67;;;3.90;;
4885;SDS011;2457;51.788;6.136;2023-08-06T09:40:30;7.27;;;4.20;;
4885;SDS011;2457;51.788;6.136;2023-08-06T09:42:58;7.40;;;4.33;;
4885;SDS011;2457;51.788;6.136;2023-08-06T09:45:30;9.50;;;4.23;;
4885;SDS011;2457;51.788;6.136;2023-08-06T09:47:58;7.50;;;4.30;;
4885;SDS011;2457;51.788;6.136;2023-08-06T09:50:32;13.37;;;4.73;;
4885;SDS011;2457;51.788;6.136;2023-08-06T09:52:55;8.30;;;4.60;;
4885;SDS011;2457;51.788;6.136;2023-08-06T09:55:24;7.67;;;4.27;;
4885;SDS011;2457;51.788;6.136;2023-08-06T09:57:53;6.43;;;3.53;;
4885;SDS011;2457;51.788;6.136;2023-08-06T10:00:23;8.60;;;3.70;;
4885;SDS011;2457;51.788;6.136;2023-08-06T10:02:51;8.30;;;4.57;;
4885;SDS011;2457;51.788;6.136;2023-08-06T10:05:22;7.80;;;4.60;;
4885;SDS011;2457;51.788;6.136;2023-08-06T10:07:51;10.20;;;5.30;;
4885;SDS011;2457;51.788;6.136;2023-08-06T10:10:19;7.80;;;4.80;;
4885;SDS011;2457;51.788;6.136;2023-08-06T10:12:47;9.23;;;5.10;;
4885;SDS011;2457;51.788;6.136;2023-08-06T10:15:16;7.33;;;4.50;;
4885;SDS011;2457;51.788;6.136;2023-08-06T10:17:47;8.40;;;4.40;;
4885;SDS011;2457;51.788;6.136;2023-08-06T10:20:16;9.57;;;4.50;;
4885;SDS011;2457;51.788;6.136;2023-08-06T10:22:43;11.43;;;4.60;;
4885;SDS011;2457;51.788;6.136;2023-08-06T10:25:16;9.10;;;3.80;;
4885;SDS011;2457;51.788;6.136;2023-08-06T10:30:30;5.40;;;2.20;;
4885;SDS011;2457;51.788;6.136;2023-08-06T10:32:55;5.43;;;1.90;;
4885;SDS011;2457;51.788;6.136;2023-08-06T10:38:05;5.10;;;1.70;;
4885;SDS011;2457;51.788;6.136;2023-08-06T10:40:33;4.00;;;1.17;;
4885;SDS011;2457;51.788;6.136;2023-08-06T10:43:04;4.00;;;1.17;;
4885;SDS011;2457;51.788;6.136;2023-08-06T10:45:36;4.40;;;1.27;;
4885;SDS011;2457;51.788;6.136;2023-08-06T10:48:04;3.80;;;1.00;;
4885;SDS011;2457;51.788;6.136;2023-08-06T10:50:32;3.90;;;1.10;;
4885;SDS011;2457;51.788;6.136;2023-08-06T10:53:03;4.57;;;1.20;;
4885;SDS011;2457;51.788;6.136;2023-08-06T10:55:28;4.00;;;1.20;;
4885;SDS011;2457;51.788;6.136;2023-08-06T10:57:56;3.73;;;1.00;;
4885;SDS011;2457;51.788;6.136;2023-08-06T11:00:25;3.70;;;1.00;;
4885;SDS011;2457;51.788;6.136;2023-08-06T11:02:52;3.87;;;1.03;;
4885;SDS011;2457;51.788;6.136;2023-08-06T11:05:21;3.90;;;1.10;;
4885;SDS011;2457;51.788;6.136;2023-08-06T11:07:48;3.70;;;1.10;;
4885;SDS011;2457;51.788;6.136;2023-08-06T11:10:17;4.07;;;1.10;;
4885;SDS011;2457;51.788;6.136;2023-08-06T11:12:44;3.90;;;1.10;;
4885;SDS011;2457;51.788;6.136;2023-08-06T11:15:12;5.40;;;1.10;;
4885;SDS011;2457;51.788;6.136;2023-08-06T11:17:39;3.70;;;1.00;;
4885;SDS011;2457;51.788;6.136;2023-08-06T11:20:12;4.60;;;1.20;;
4885;SDS011;2457;51.788;6.136;2023-08-06T11:22:37;5.27;;;1.20;;
4885;SDS011;2457;51.788;6.136;2023-08-06T11:25:05;4.00;;;1.13;;
4885;SDS011;2457;51.788;6.136;2023-08-06T11:27:33;3.80;;;1.00;;
4885;SDS011;2457;51.788;6.136;2023-08-06T11:30:00;3.90;;;1.00;;
4885;SDS011;2457;51.788;6.136;2023-08-06T11:32:28;4.87;;;1.57;;
4885;SDS011;2457;51.788;6.136;2023-08-06T11:34:55;4.00;;;1.13;;
4885;SDS011;2457;51.788;6.136;2023-08-06T11:37:22;3.90;;;1.20;;
4885;SDS011;2457;51.788;6.136;2023-08-06T11:39:51;4.17;;;1.23;;
4885;SDS011;2457;51.788;6.136;2023-08-06T11:42:19;3.70;;;1.07;;
4885;SDS011;2457;51.788;6.136;2023-08-06T11:44:46;4.63;;;1.27;;
4885;SDS011;2457;51.788;6.136;2023-08-06T11:47:17;4.10;;;1.50;;
4885;SDS011;2457;51.788;6.136;2023-08-06T11:49:46;4.00;;;1.47;;
4885;SDS011;2457;51.788;6.136;2023-08-06T11:52:14;4.10;;;1.30;;
4885;SDS011;2457;51.788;6.136;2023-08-06T11:54:42;4.43;;;1.80;;
4885;SDS011;2457;51.788;6.136;2023-08-06T11:57:10;4.47;;;1.70;;
4885;SDS011;2457;51.788;6.136;2023-08-06T11:59:38;4.45;;;1.70;;
4885;SDS011;2457;51.788;6.136;2023-08-06T12:02:07;4.90;;;2.00;;
4885;SDS011;2457;51.788;6.136;2023-08-06T12:04:57;5.10;;;2.20;;
4885;SDS011;2457;51.788;6.136;2023-08-06T12:07:08;5.40;;;2.10;;
4885;SDS011;2457;51.788;6.136;2023-08-06T12:09:35;5.60;;;2.07;;
4885;SDS011;2457;51.788;6.136;2023-08-06T12:12:02;5.57;;;2.20;;
4885;SDS011;2457;51.788;6.136;2023-08-06T12:14:33;6.10;;;2.47;;
4885;SDS011;2457;51.788;6.136;2023-08-06T12:17:00;5.60;;;2.20;;
4885;SDS011;2457;51.788;6.136;2023-08-06T12:19:28;5.43;;;2.30;;
4885;SDS011;2457;51.788;6.136;2023-08-06T12:21:56;7.07;;;2.43;;
4885;SDS011;2457;51.788;6.136;2023-08-06T12:24:24;6.07;;;2.47;;
4885;SDS011;2457;51.788;6.136;2023-08-06T12:26:51;9.40;;;2.83;;
4885;SDS011;2457;51.788;6.136;2023-08-06T12:29:19;7.10;;;2.57;;
4885;SDS011;2457;51.788;6.136;2023-08-06T12:31:46;5.23;;;2.10;;
4885;SDS011;2457;51.788;6.136;2023-08-06T12:34:13;5.20;;;1.93;;
4885;SDS011;2457;51.788;6.136;2023-08-06T12:36:41;6.07;;;2.30;;
4885;SDS011;2457;51.788;6.136;2023-08-06T12:39:08;6.70;;;2.47;;
4885;SDS011;2457;51.788;6.136;2023-08-06T12:41:36;6.90;;;2.27;;
4885;SDS011;2457;51.788;6.136;2023-08-06T12:44:03;5.20;;;1.80;;
4885;SDS011;2457;51.788;6.136;2023-08-06T12:46:31;5.03;;;1.90;;
4885;SDS011;2457;51.788;6.136;2023-08-06T12:48:58;5.87;;;2.33;;
4885;SDS011;2457;51.788;6.136;2023-08-06T12:51:26;5.57;;;2.10;;
4885;SDS011;2457;51.788;6.136;2023-08-06T12:53:53;6.00;;;2.03;;
4885;SDS011;2457;51.788;6.136;2023-08-06T12:56:20;6.47;;;2.90;;
4885;SDS011;2457;51.788;6.136;2023-08-06T12:58:47;5.90;;;2.13;;
4885;SDS011;2457;51.788;6.136;2023-08-06T13:01:15;5.40;;;2.37;;
4885;SDS011;2457;51.788;6.136;2023-08-06T13:03:42;8.47;;;2.10;;
4885;SDS011;2457;51.788;6.136;2023-08-06T13:06:09;5.40;;;2.20;;
4885;SDS011;2457;51.788;6.136;2023-08-06T13:08:37;6.83;;;2.37;;
4885;SDS011;2457;51.788;6.136;2023-08-06T13:11:05;7.53;;;2.60;;
4885;SDS011;2457;51.788;6.136;2023-08-06T13:13:32;7.60;;;2.13;;
4885;SDS011;2457;51.788;6.136;2023-08-06T13:15:59;5.30;;;2.30;;
4885;SDS011;2457;51.788;6.136;2023-08-06T13:18:27;6.40;;;2.53;;
4885;SDS011;2457;51.788;6.136;2023-08-06T13:20:55;5.60;;;2.10;;
4885;SDS011;2457;51.788;6.136;2023-08-06T13:23:22;5.50;;;2.00;;
4885;SDS011;2457;51.788;6.136;2023-08-06T13:25:50;6.73;;;2.10;;
4885;SDS011;2457;51.788;6.136;2023-08-06T13:28:17;5.97;;;1.90;;
4885;SDS011;2457;51.788;6.136;2023-08-06T13:30:45;5.30;;;2.20;;
4885;SDS011;2457;51.788;6.136;2023-08-06T13:33:12;6.10;;;2.20;;
4885;SDS011;2457;51.788;6.136;2023-08-06T13:35:39;6.20;;;2.10;;
4885;SDS011;2457;51.788;6.136;2023-08-06T13:38:07;4.87;;;1.90;;
4885;SDS011;2457;51.788;6.136;2023-08-06T13:40:34;5.70;;;1.87;;
4885;SDS011;2457;51.788;6.136;2023-08-06T13:43:02;7.83;;;2.10;;
4885;SDS011;2457;51.788;6.136;2023-08-06T13:45:29;4.70;;;1.80;;
4885;SDS011;2457;51.788;6.136;2023-08-06T13:47:57;6.00;;;2.10;;
4885;SDS011;2457;51.788;6.136;2023-08-06T13:50:25;7.90;;;2.20;;
4885;SDS011;2457;51.788;6.136;2023-08-06T13:52:52;7.07;;;2.20;;
4885;SDS011;2457;51.788;6.136;2023-08-06T13:55:22;6.67;;;1.93;;
4885;SDS011;2457;51.788;6.136;2023-08-06T13:57:49;6.43;;;1.97;;
4885;SDS011;2457;51.788;6.136;2023-08-06T14:00:17;5.50;;;1.87;;
4885;SDS011;2457;51.788;6.136;2023-08-06T14:02:48;5.40;;;2.00;;
4885;SDS011;2457;51.788;6.136;2023-08-06T14:05:18;5.30;;;1.80;;
4885;SDS011;2457;51.788;6.136;2023-08-06T14:07:45;4.60;;;1.73;;
4885;SDS011;2457;51.788;6.136;2023-08-06T14:10:14;5.40;;;1.80;;
4885;SDS011;2457;51.788;6.136;2023-08-06T14:12:42;5.63;;;1.60;;
4885;SDS011;2457;51.788;6.136;2023-08-06T14:15:10;4.83;;;1.47;;
4885;SDS011;2457;51.788;6.136;2023-08-06T14:17:38;5.90;;;1.57;;
4885;SDS011;2457;51.788;6.136;2023-08-06T14:20:06;4.57;;;1.50;;
4885;SDS011;2457;51.788;6.136;2023-08-06T14:22:35;6.13;;;2.07;;
4885;SDS011;2457;51.788;6.136;2023-08-06T14:25:03;4.00;;;1.43;;
4885;SDS011;2457;51.788;6.136;2023-08-06T14:27:30;5.63;;;2.00;;
4885;SDS011;2457;51.788;6.136;2023-08-06T14:29:57;4.83;;;1.57;;
4885;SDS011;2457;51.788;6.136;2023-08-06T14:32:25;4.53;;;2.17;;
4885;SDS011;2457;51.788;6.136;2023-08-06T14:34:52;6.90;;;1.37;;
4885;SDS011;2457;51.788;6.136;2023-08-06T14:37:19;4.80;;;1.50;;
4885;SDS011;2457;51.788;6.136;2023-08-06T14:39:47;4.43;;;1.47;;
4885;SDS011;2457;51.788;6.136;2023-08-06T14:42:14;4.30;;;1.47;;
4885;SDS011;2457;51.788;6.136;2023-08-06T14:44:41;4.30;;;1.37;;
4885;SDS011;2457;51.788;6.136;2023-08-06T14:47:09;5.63;;;1.90;;
4885;SDS011;2457;51.788;6.136;2023-08-06T14:49:37;4.70;;;1.57;;
4885;SDS011;2457;51.788;6.136;2023-08-06T14:52:05;4.27;;;1.40;;
4885;SDS011;2457;51.788;6.136;2023-08-06T14:54:33;4.47;;;1.43;;
4885;SDS011;2457;51.788;6.136;2023-08-06T14:57:00;4.40;;;1.60;;
4885;SDS011;2457;51.788;6.136;2023-08-06T14:59:27;5.53;;;1.60;;
4885;SDS011;2457;51.788;6.136;2023-08-06T15:01:55;5.87;;;1.80;;
4885;SDS011;2457;51.788;6.136;2023-08-06T15:04:22;5.97;;;1.70;;
4885;SDS011;2457;51.788;6.136;2023-08-06T15:06:50;5.40;;;1.73;;
4885;SDS011;2457;51.788;6.136;2023-08-06T15:09:17;4.93;;;1.40;;
4885;SDS011;2457;51.788;6.136;2023-08-06T15:11:44;5.83;;;1.53;;
4885;SDS011;2457;51.788;6.136;2023-08-06T15:14:12;4.83;;;1.63;;
4885;SDS011;2457;51.788;6.136;2023-08-06T15:16:40;4.37;;;1.37;;
4885;SDS011;2457;51.788;6.136;2023-08-06T15:19:08;5.00;;;1.40;;
4885;SDS011;2457;51.788;6.136;2023-08-06T15:21:35;4.13;;;1.23;;
4885;SDS011;2457;51.788;6.136;2023-08-06T15:24:04;6.23;;;1.30;;
4885;SDS011;2457;51.788;6.136;2023-08-06T15:26:31;5.50;;;1.93;;